sensor_id;sensor_type;location;lat;lon;timestamp;pressure;altitude;pressure_sealevel;temperature;humidity
58690;BME280;44470;53.206;-6.106;2023-02-20T00:00:26;102139.19;;;19.50;61.91
58690;BME280;44470;53.206;-6.106;2023-02-20T00:02:52;102135.59;;;19.44;61.75
58690;BME280;44470;53.206;-6.106;2023-02-20T00:05:18;102109.75;;;19.39;61.69
58690;BME280;44470;53.206;-6.106;2023-02-20T00:07:44;102133.81;;;19.48;61.85
58690;BME280;44470;53.206;-6.106;2023-02-20T00:10:10;102128.47;;;19.48;61.82
58690;BME280;44470;53.206;-6.106;2023-02-20T00:12:36;102136.50;;;19.48;61.64
58690;BME280;44470;53.206;-6.106;2023-02-20T00:15:02;102127.56;;;19.43;61.47
58690;BME280;44470;53.206;-6.106;2023-02-20T00:17:27;102124.91;;;19.41;61.71
58690;BME280;44470;53.206;-6.106;2023-02-20T00:19:54;102124.03;;;19.47;61.75
58690;BME280;44470;53.206;-6.106;2023-02-20T00:22:23;102124.91;;;19.46;61.43
58690;BME280;44470;53.206;-6.106;2023-02-20T00:24:49;102143.59;;;19.46;61.70
58690;BME280;44470;53.206;-6.106;2023-02-20T00:27:15;102142.72;;;19.47;61.61
58690;BME280;44470;53.206;-6.106;2023-02-20T00:29:43;102122.25;;;19.46;61.61
58690;BME280;44470;53.206;-6.106;2023-02-20T00:32:08;102134.69;;;19.47;61.72
58690;BME280;44470;53.206;-6.106;2023-02-20T00:34:34;102127.59;;;19.46;61.79
58690;BME280;44470;53.206;-6.106;2023-02-20T00:36:59;102123.13;;;19.45;61.67
58690;BME280;44470;53.206;-6.106;2023-02-20T00:39:25;102131.13;;;19.45;61.36
58690;BME280;44470;53.206;-6.106;2023-02-20T00:41:50;102123.13;;;19.45;61.74
58690;BME280;44470;53.206;-6.106;2023-02-20T00:44:16;102136.47;;;19.45;61.48
58690;BME280;44470;53.206;-6.106;2023-02-20T00:46:41;102122.25;;;19.44;61.29
58690;BME280;44470;53.206;-6.106;2023-02-20T00:49:07;102117.78;;;19.45;61.36
58690;BME280;44470;53.206;-6.106;2023-02-20T00:51:45;102106.19;;;19.40;61.57
58690;BME280;44470;53.206;-6.106;2023-02-20T00:54:10;102104.44;;;19.45;61.59
58690;BME280;44470;53.206;-6.106;2023-02-20T00:56:36;102101.75;;;19.42;61.52
58690;BME280;44470;53.206;-6.106;2023-02-20T00:59:02;102110.66;;;19.44;61.27
58690;BME280;44470;53.206;-6.106;2023-02-20T01:01:27;102097.31;;;19.42;61.81
58690;BME280;44470;53.206;-6.106;2023-02-20T01:03:53;102105.34;;;19.42;61.68
58690;BME280;44470;53.206;-6.106;2023-02-20T01:06:18;102106.22;;;19.43;61.61
58690;BME280;44470;53.206;-6.106;2023-02-20T01:08:44;102103.56;;;19.41;61.26
58690;BME280;44470;53.206;-6.106;2023-02-20T01:11:10;102086.63;;;19.38;61.70
58690;BME280;44470;53.206;-6.106;2023-02-20T01:13:35;102109.78;;;19.40;61.60
58690;BME280;44470;53.206;-6.106;2023-02-20T01:16:01;102110.66;;;19.42;61.62
58690;BME280;44470;53.206;-6.106;2023-02-20T01:18:26;102113.31;;;19.41;61.46
58690;BME280;44470;53.206;-6.106;2023-02-20T01:20:52;102106.22;;;19.41;61.77
58690;BME280;44470;53.206;-6.106;2023-02-20T01:23:20;102107.09;;;19.39;61.46
58690;BME280;44470;53.206;-6.106;2023-02-20T01:25:45;102089.31;;;19.39;61.48
58690;BME280;44470;53.206;-6.106;2023-02-20T01:28:11;102103.53;;;19.40;61.45
58690;BME280;44470;53.206;-6.106;2023-02-20T01:30:36;102098.19;;;19.40;61.29
58690;BME280;44470;53.206;-6.106;2023-02-20T01:33:02;102090.19;;;19.38;61.51
58690;BME280;44470;53.206;-6.106;2023-02-20T01:35:28;102079.47;;;19.35;61.20
58690;BME280;44470;53.206;-6.106;2023-02-20T01:37:58;102091.94;;;19.38;61.56
58690;BME280;44470;53.206;-6.106;2023-02-20T01:40:25;102075.94;;;19.35;61.35
58690;BME280;44470;53.206;-6.106;2023-02-20T01:42:52;102089.31;;;19.39;61.52
58690;BME280;44470;53.206;-6.106;2023-02-20T01:47:49;102072.38;;;19.39;61.30
58690;BME280;44470;53.206;-6.106;2023-02-20T01:50:17;102075.06;;;19.37;61.35
58690;BME280;44470;53.206;-6.106;2023-02-20T01:52:45;102067.03;;;19.39;61.31
58690;BME280;44470;53.206;-6.106;2023-02-20T01:55:23;102060.81;;;19.38;61.34
58690;BME280;44470;53.206;-6.106;2023-02-20T01:57:58;102071.50;;;19.38;61.19
58690;BME280;44470;53.206;-6.106;2023-02-20T02:00:25;102076.84;;;19.38;61.43
58690;BME280;44470;53.206;-6.106;2023-02-20T02:05:30;102079.50;;;19.37;61.15
58690;BME280;44470;53.206;-6.106;2023-02-20T02:08:00;102085.72;;;19.36;61.00
58690;BME280;44470;53.206;-6.106;2023-02-20T02:10:33;102099.06;;;19.36;61.23
58690;BME280;44470;53.206;-6.106;2023-02-20T02:13:01;102085.72;;;19.36;61.15
58690;BME280;44470;53.206;-6.106;2023-02-20T02:15:27;102083.03;;;19.36;61.20
58690;BME280;44470;53.206;-6.106;2023-02-20T02:37:49;102068.81;;;19.34;61.13
58690;BME280;44470;53.206;-6.106;2023-02-20T02:43:15;102071.47;;;19.35;61.31
58690;BME280;44470;53.206;-6.106;2023-02-20T02:45:49;102064.34;;;19.34;61.35
58690;BME280;44470;53.206;-6.106;2023-02-20T02:48:27;102054.56;;;19.35;60.92
58690;BME280;44470;53.206;-6.106;2023-02-20T02:50:57;102041.19;;;19.33;61.33
58690;BME280;44470;53.206;-6.106;2023-02-20T02:53:25;102050.13;;;19.34;61.40
58690;BME280;44470;53.206;-6.106;2023-02-20T02:55:50;102041.19;;;19.33;60.92
58690;BME280;44470;53.206;-6.106;2023-02-20T02:58:17;102046.53;;;19.33;61.06
58690;BME280;44470;53.206;-6.106;2023-02-20T03:00:57;102048.31;;;19.34;61.37
58690;BME280;44470;53.206;-6.106;2023-02-20T03:03:27;102037.66;;;19.34;61.17
58690;BME280;44470;53.206;-6.106;2023-02-20T03:06:19;102044.78;;;19.34;60.93
58690;BME280;44470;53.206;-6.106;2023-02-20T03:08:58;102046.56;;;19.35;61.19
58690;BME280;44470;53.206;-6.106;2023-02-20T03:11:27;102049.22;;;19.33;61.20
58690;BME280;44470;53.206;-6.106;2023-02-20T03:17:09;102056.34;;;19.33;61.40
58690;BME280;44470;53.206;-6.106;2023-02-20T03:19:43;102037.66;;;19.29;61.03
58690;BME280;44470;53.206;-6.106;2023-02-20T03:22:24;102034.09;;;19.34;61.05
58690;BME280;44470;53.206;-6.106;2023-02-20T03:24:55;102032.31;;;19.33;60.86
58690;BME280;44470;53.206;-6.106;2023-02-20T03:27:35;102043.84;;;19.30;61.14
58690;BME280;44470;53.206;-6.106;2023-02-20T03:33:23;102058.13;;;19.34;61.07
58690;BME280;44470;53.206;-6.106;2023-02-20T03:36:25;102051.88;;;19.33;61.25
58690;BME280;44470;53.206;-6.106;2023-02-20T03:39:14;102043.00;;;19.33;60.93
58690;BME280;44470;53.206;-6.106;2023-02-20T03:42:03;102044.75;;;19.32;60.99
58690;BME280;44470;53.206;-6.106;2023-02-20T03:44:56;102045.63;;;19.31;60.89
58690;BME280;44470;53.206;-6.106;2023-02-20T03:47:25;102048.34;;;19.33;60.91
58690;BME280;44470;53.206;-6.106;2023-02-20T03:49:52;102052.78;;;19.34;61.33
58690;BME280;44470;53.206;-6.106;2023-02-20T03:52:51;102041.19;;;19.33;60.75
58690;BME280;44470;53.206;-6.106;2023-02-20T03:55:16;102039.44;;;19.34;60.71
58690;BME280;44470;53.206;-6.106;2023-02-20T03:57:49;102028.75;;;19.34;60.90
58690;BME280;44470;53.206;-6.106;2023-02-20T04:00:19;102036.78;;;19.34;60.74
58690;BME280;44470;53.206;-6.106;2023-02-20T04:02:52;102020.72;;;19.32;60.82
58690;BME280;44470;53.206;-6.106;2023-02-20T04:05:26;102019.84;;;19.33;61.20
58690;BME280;44470;53.206;-6.106;2023-02-20T04:08:00;102023.41;;;19.34;60.98
58690;BME280;44470;53.206;-6.106;2023-02-20T04:10:36;102018.09;;;19.34;60.76
58690;BME280;44470;53.206;-6.106;2023-02-20T04:13:04;102002.03;;;19.29;60.91
58690;BME280;44470;53.206;-6.106;2023-02-20T04:15:32;102012.75;;;19.34;60.87
58690;BME280;44470;53.206;-6.106;2023-02-20T04:18:07;102010.06;;;19.34;60.61
58690;BME280;44470;53.206;-6.106;2023-02-20T04:20:35;102013.63;;;19.33;60.87
58690;BME280;44470;53.206;-6.106;2023-02-20T04:23:25;102002.06;;;19.34;60.80
58690;BME280;44470;53.206;-6.106;2023-02-20T04:26:07;102007.41;;;19.34;60.60
58690;BME280;44470;53.206;-6.106;2023-02-20T04:28:36;102004.72;;;19.34;60.78
58690;BME280;44470;53.206;-6.106;2023-02-20T04:31:04;101993.16;;;19.31;60.94
58690;BME280;44470;53.206;-6.106;2023-02-20T04:33:32;101996.72;;;19.34;60.27
58690;BME280;44470;53.206;-6.106;2023-02-20T04:36:02;101992.28;;;19.33;60.47
58690;BME280;44470;53.206;-6.106;2023-02-20T04:38:28;102000.25;;;19.34;60.57
58690;BME280;44470;53.206;-6.106;2023-02-20T04:40:54;101991.38;;;19.34;60.92
58690;BME280;44470;53.206;-6.106;2023-02-20T04:43:21;102002.94;;;19.33;60.47
58690;BME280;44470;53.206;-6.106;2023-02-20T04:45:47;102002.94;;;19.33;60.34
58690;BME280;44470;53.206;-6.106;2023-02-20T04:48:12;101987.81;;;19.31;61.00
58690;BME280;44470;53.206;-6.106;2023-02-20T04:50:39;101983.38;;;19.35;60.72
58690;BME280;44470;53.206;-6.106;2023-02-20T04:53:05;101987.81;;;19.35;60.57
58690;BME280;44470;53.206;-6.106;2023-02-20T04:55:31;101993.16;;;19.35;60.27
58690;BME280;44470;53.206;-6.106;2023-02-20T04:58:00;101982.50;;;19.35;60.61
58690;BME280;44470;53.206;-6.106;2023-02-20T05:00:31;101989.59;;;19.34;60.40
58690;BME280;44470;53.206;-6.106;2023-02-20T05:02:57;101989.59;;;19.34;60.85
58690;BME280;44470;53.206;-6.106;2023-02-20T05:05:25;101987.81;;;19.33;60.57
58690;BME280;44470;53.206;-6.106;2023-02-20T05:08:00;101986.94;;;19.33;60.39
58690;BME280;44470;53.206;-6.106;2023-02-20T05:10:27;101972.69;;;19.34;60.55
58690;BME280;44470;53.206;-6.106;2023-02-20T05:12:53;101975.38;;;19.34;60.69
58690;BME280;44470;53.206;-6.106;2023-02-20T05:15:19;101991.38;;;19.35;60.42
58690;BME280;44470;53.206;-6.106;2023-02-20T05:17:45;101986.03;;;19.35;60.36
58690;BME280;44470;53.206;-6.106;2023-02-20T05:20:11;101974.47;;;19.35;60.77
58690;BME280;44470;53.206;-6.106;2023-02-20T05:22:37;101974.47;;;19.35;60.26
58690;BME280;44470;53.206;-6.106;2023-02-20T05:25:03;101972.69;;;19.35;60.53
58690;BME280;44470;53.206;-6.106;2023-02-20T05:27:29;101977.16;;;19.35;60.68
58690;BME280;44470;53.206;-6.106;2023-02-20T05:29:57;101976.25;;;19.36;60.60
58690;BME280;44470;53.206;-6.106;2023-02-20T05:32:25;101978.94;;;19.36;60.42
58690;BME280;44470;53.206;-6.106;2023-02-20T05:34:51;101981.59;;;19.36;60.59
58690;BME280;44470;53.206;-6.106;2023-02-20T05:37:20;101974.47;;;19.35;60.64
58690;BME280;44470;53.206;-6.106;2023-02-20T05:39:46;101965.56;;;19.29;60.20
58690;BME280;44470;53.206;-6.106;2023-02-20T05:42:12;101975.34;;;19.35;60.34
58690;BME280;44470;53.206;-6.106;2023-02-20T05:44:38;101970.91;;;19.33;60.38
58690;BME280;44470;53.206;-6.106;2023-02-20T05:47:04;101976.25;;;19.36;60.25
58690;BME280;44470;53.206;-6.106;2023-02-20T05:49:30;101968.25;;;19.36;60.24
58690;BME280;44470;53.206;-6.106;2023-02-20T05:51:57;101974.47;;;19.35;60.42
58690;BME280;44470;53.206;-6.106;2023-02-20T05:54:23;101973.59;;;19.33;60.69
58690;BME280;44470;53.206;-6.106;2023-02-20T05:56:51;101974.47;;;19.35;60.39
58690;BME280;44470;53.206;-6.106;2023-02-20T05:59:19;101970.00;;;19.35;60.09
58690;BME280;44470;53.206;-6.106;2023-02-20T06:01:46;101970.91;;;19.36;60.25
58690;BME280;44470;53.206;-6.106;2023-02-20T06:04:11;101974.47;;;19.31;60.20
58690;BME280;44470;53.206;-6.106;2023-02-20T06:06:40;101983.38;;;19.37;60.33
58690;BME280;44470;53.206;-6.106;2023-02-20T06:09:07;101987.84;;;19.36;60.37
58690;BME280;44470;53.206;-6.106;2023-02-20T06:11:33;101977.16;;;19.31;60.25
58690;BME280;44470;53.206;-6.106;2023-02-20T06:13:59;101981.59;;;19.36;60.36
58690;BME280;44470;53.206;-6.106;2023-02-20T06:16:27;101983.38;;;19.37;60.36
58690;BME280;44470;53.206;-6.106;2023-02-20T06:18:53;101983.38;;;19.37;60.16
58690;BME280;44470;53.206;-6.106;2023-02-20T06:21:19;101980.72;;;19.37;60.28
58690;BME280;44470;53.206;-6.106;2023-02-20T06:23:48;101972.69;;;19.35;60.15
58690;BME280;44470;53.206;-6.106;2023-02-20T06:26:15;101969.16;;;19.35;60.33
58690;BME280;44470;53.206;-6.106;2023-02-20T06:28:41;101960.25;;;19.36;60.47
58690;BME280;44470;53.206;-6.106;2023-02-20T06:31:07;101959.34;;;19.32;60.09
58690;BME280;44470;53.206;-6.106;2023-02-20T06:33:33;101956.69;;;19.37;60.00
58690;BME280;44470;53.206;-6.106;2023-02-20T06:36:04;101967.38;;;19.37;60.07
58690;BME280;44470;53.206;-6.106;2023-02-20T06:38:30;101971.81;;;19.35;60.15
58690;BME280;44470;53.206;-6.106;2023-02-20T06:40:56;101965.59;;;19.36;60.06
58690;BME280;44470;53.206;-6.106;2023-02-20T06:43:21;101970.03;;;19.37;60.25
58690;BME280;44470;53.206;-6.106;2023-02-20T06:45:47;101977.16;;;19.36;60.04
58690;BME280;44470;53.206;-6.106;2023-02-20T06:48:13;101962.03;;;19.37;59.94
58690;BME280;44470;53.206;-6.106;2023-02-20T06:50:40;101969.16;;;19.36;59.95
58690;BME280;44470;53.206;-6.106;2023-02-20T06:53:06;101971.78;;;19.33;60.12
58690;BME280;44470;53.206;-6.106;2023-02-20T06:55:32;101967.38;;;19.37;60.19
58690;BME280;44470;53.206;-6.106;2023-02-20T06:57:58;101972.69;;;19.37;60.15
58690;BME280;44470;53.206;-6.106;2023-02-20T07:00:24;101976.25;;;19.39;59.92
58690;BME280;44470;53.206;-6.106;2023-02-20T07:02:49;101980.72;;;19.37;60.46
58690;BME280;44470;53.206;-6.106;2023-02-20T07:05:15;101982.50;;;19.36;59.98
58690;BME280;44470;53.206;-6.106;2023-02-20T07:07:40;101978.94;;;19.39;60.14
58690;BME280;44470;53.206;-6.106;2023-02-20T07:10:06;101973.59;;;19.39;59.97
58690;BME280;44470;53.206;-6.106;2023-02-20T07:12:32;101974.47;;;19.38;59.91
58690;BME280;44470;53.206;-6.106;2023-02-20T07:14:58;101978.94;;;19.39;59.95
58690;BME280;44470;53.206;-6.106;2023-02-20T07:17:24;101979.81;;;19.38;60.37
58690;BME280;44470;53.206;-6.106;2023-02-20T07:19:50;101982.50;;;19.39;60.05
58690;BME280;44470;53.206;-6.106;2023-02-20T07:22:15;102001.19;;;19.38;60.05
58690;BME280;44470;53.206;-6.106;2023-02-20T07:24:41;101986.06;;;19.37;59.93
58690;BME280;44470;53.206;-6.106;2023-02-20T07:27:08;102002.97;;;19.39;60.04
58690;BME280;44470;53.206;-6.106;2023-02-20T07:29:36;101991.41;;;19.38;60.12
58690;BME280;44470;53.206;-6.106;2023-02-20T07:32:02;101986.03;;;19.34;59.83
58690;BME280;44470;53.206;-6.106;2023-02-20T07:34:27;101987.81;;;19.35;60.05
58690;BME280;44470;53.206;-6.106;2023-02-20T07:36:53;102000.28;;;19.39;59.83
58690;BME280;44470;53.206;-6.106;2023-02-20T07:39:18;101990.50;;;19.38;60.06
58690;BME280;44470;53.206;-6.106;2023-02-20T07:41:44;101989.63;;;19.39;59.70
58690;BME280;44470;53.206;-6.106;2023-02-20T07:44:28;101983.38;;;19.37;59.72
58690;BME280;44470;53.206;-6.106;2023-02-20T07:46:53;101983.38;;;19.40;59.68
58690;BME280;44470;53.206;-6.106;2023-02-20T07:49:20;101969.16;;;19.41;60.16
58690;BME280;44470;53.206;-6.106;2023-02-20T07:51:46;101976.25;;;19.39;59.67
58690;BME280;44470;53.206;-6.106;2023-02-20T07:54:11;101979.84;;;19.41;60.01
58690;BME280;44470;53.206;-6.106;2023-02-20T07:56:39;101976.25;;;19.39;59.47
58690;BME280;44470;53.206;-6.106;2023-02-20T07:59:05;101971.81;;;19.38;59.86
58690;BME280;44470;53.206;-6.106;2023-02-20T08:01:30;101973.59;;;19.39;59.98
58690;BME280;44470;53.206;-6.106;2023-02-20T08:03:56;101978.97;;;19.40;59.52
58690;BME280;44470;53.206;-6.106;2023-02-20T08:06:21;101963.81;;;19.39;59.72
58690;BME280;44470;53.206;-6.106;2023-02-20T08:08:48;101955.81;;;19.41;59.86
58690;BME280;44470;53.206;-6.106;2023-02-20T08:11:18;101947.81;;;19.39;59.84
58690;BME280;44470;53.206;-6.106;2023-02-20T08:13:44;101954.03;;;19.40;59.89
58690;BME280;44470;53.206;-6.106;2023-02-20T08:16:10;101938.88;;;19.34;60.15
58690;BME280;44470;53.206;-6.106;2023-02-20T08:18:36;101947.81;;;19.39;59.76
58690;BME280;44470;53.206;-6.106;2023-02-20T08:21:01;101939.78;;;19.41;59.42
58690;BME280;44470;53.206;-6.106;2023-02-20T08:23:27;101928.22;;;19.39;59.52
58690;BME280;44470;53.206;-6.106;2023-02-20T08:25:53;101938.00;;;19.38;59.53
58690;BME280;44470;53.206;-6.106;2023-02-20T08:28:19;101928.22;;;19.40;59.73
58690;BME280;44470;53.206;-6.106;2023-02-20T08:30:45;101955.81;;;19.39;59.87
58690;BME280;44470;53.206;-6.106;2023-02-20T08:33:10;101955.81;;;19.42;59.53
58690;BME280;44470;53.206;-6.106;2023-02-20T08:35:36;101952.25;;;19.40;59.80
58690;BME280;44470;53.206;-6.106;2023-02-20T08:38:03;101963.81;;;19.41;59.60
58690;BME280;44470;53.206;-6.106;2023-02-20T08:40:29;101962.03;;;19.41;59.81
58690;BME280;44470;53.206;-6.106;2023-02-20T08:42:55;101955.81;;;19.36;59.72
58690;BME280;44470;53.206;-6.106;2023-02-20T08:45:20;101961.16;;;19.42;59.87
58690;BME280;44470;53.206;-6.106;2023-02-20T08:47:47;101955.81;;;19.42;59.79
58690;BME280;44470;53.206;-6.106;2023-02-20T08:50:13;101965.59;;;19.42;59.65
58690;BME280;44470;53.206;-6.106;2023-02-20T08:52:41;101965.59;;;19.42;59.64
58690;BME280;44470;53.206;-6.106;2023-02-20T08:55:07;101955.81;;;19.42;59.41
58690;BME280;44470;53.206;-6.106;2023-02-20T08:57:33;101962.91;;;19.42;59.38
58690;BME280;44470;53.206;-6.106;2023-02-20T08:59:58;101949.56;;;19.45;59.70
58690;BME280;44470;53.206;-6.106;2023-02-20T09:02:24;101952.25;;;19.40;59.92
58690;BME280;44470;53.206;-6.106;2023-02-20T09:04:53;101944.22;;;19.42;59.60
58690;BME280;44470;53.206;-6.106;2023-02-20T09:07:18;101946.00;;;19.43;59.55
58690;BME280;44470;53.206;-6.106;2023-02-20T09:09:44;101946.00;;;19.43;59.36
58690;BME280;44470;53.206;-6.106;2023-02-20T09:12:10;101956.69;;;19.43;59.71
58690;BME280;44470;53.206;-6.106;2023-02-20T09:14:35;101949.56;;;19.45;59.85
58690;BME280;44470;53.206;-6.106;2023-02-20T09:17:02;101930.88;;;19.42;59.42
58690;BME280;44470;53.206;-6.106;2023-02-20T09:19:29;101934.47;;;19.42;59.58
58690;BME280;44470;53.206;-6.106;2023-02-20T09:21:55;101924.66;;;19.37;59.61
58690;BME280;44470;53.206;-6.106;2023-02-20T09:24:20;101922.88;;;19.40;59.76
58690;BME280;44470;53.206;-6.106;2023-02-20T09:26:46;101922.88;;;19.42;59.57
58690;BME280;44470;53.206;-6.106;2023-02-20T09:29:12;101906.84;;;19.42;59.46
58690;BME280;44470;53.206;-6.106;2023-02-20T09:31:37;101903.28;;;19.37;59.77
58690;BME280;44470;53.206;-6.106;2023-02-20T09:34:03;101911.31;;;19.41;59.91
58690;BME280;44470;53.206;-6.106;2023-02-20T09:36:29;101884.63;;;19.41;59.63
58690;BME280;44470;53.206;-6.106;2023-02-20T09:38:54;101890.84;;;19.42;59.55
58690;BME280;44470;53.206;-6.106;2023-02-20T09:46:55;101892.63;;;19.37;59.45
58690;BME280;44470;53.206;-6.106;2023-02-20T09:49:29;101904.19;;;19.42;59.87
58690;BME280;44470;53.206;-6.106;2023-02-20T09:52:00;101898.84;;;19.45;59.72
58690;BME280;44470;53.206;-6.106;2023-02-20T09:54:39;101917.53;;;19.42;59.73
58690;BME280;44470;53.206;-6.106;2023-02-20T09:57:12;101917.56;;;19.43;59.72
58690;BME280;44470;53.206;-6.106;2023-02-20T09:59:46;101903.28;;;19.43;59.43
58690;BME280;44470;53.206;-6.106;2023-02-20T10:02:17;101906.88;;;19.43;59.64
58690;BME280;44470;53.206;-6.106;2023-02-20T10:04:44;101918.44;;;19.44;59.64
58690;BME280;44470;53.206;-6.106;2023-02-20T10:07:29;101915.75;;;19.44;59.62
58690;BME280;44470;53.206;-6.106;2023-02-20T10:09:57;101907.75;;;19.44;59.35
58690;BME280;44470;53.206;-6.106;2023-02-20T10:18:34;101905.97;;;19.44;59.43
58690;BME280;44470;53.206;-6.106;2023-02-20T10:21:06;101913.09;;;19.45;59.25
58690;BME280;44470;53.206;-6.106;2023-02-20T10:23:43;101915.75;;;19.44;59.65
58690;BME280;44470;53.206;-6.106;2023-02-20T10:26:16;101904.19;;;19.43;59.54
58690;BME280;44470;53.206;-6.106;2023-02-20T10:28:42;101919.31;;;19.46;59.22
58690;BME280;44470;53.206;-6.106;2023-02-20T10:31:34;101913.09;;;19.44;59.20
58690;BME280;44470;53.206;-6.106;2023-02-20T10:34:08;101910.41;;;19.44;59.62
58690;BME280;44470;53.206;-6.106;2023-02-20T10:36:43;101906.84;;;19.42;59.45
58690;BME280;44470;53.206;-6.106;2023-02-20T10:39:13;101915.78;;;19.45;59.49
58690;BME280;44470;53.206;-6.106;2023-02-20T10:41:57;101914.88;;;19.46;59.66
58690;BME280;44470;53.206;-6.106;2023-02-20T10:44:32;101902.41;;;19.38;59.31
58690;BME280;44470;53.206;-6.106;2023-02-20T10:47:03;101916.66;;;19.46;59.59
58690;BME280;44470;53.206;-6.106;2023-02-20T10:52:09;101916.66;;;19.48;59.63
58690;BME280;44470;53.206;-6.106;2023-02-20T10:54:39;101933.56;;;19.48;59.47
58690;BME280;44470;53.206;-6.106;2023-02-20T10:57:21;101938.03;;;19.48;59.65
58690;BME280;44470;53.206;-6.106;2023-02-20T10:59:58;101935.34;;;19.41;59.44
58690;BME280;44470;53.206;-6.106;2023-02-20T11:02:32;101925.56;;;19.46;59.28
58690;BME280;44470;53.206;-6.106;2023-02-20T11:05:09;101934.44;;;19.47;59.56
58690;BME280;44470;53.206;-6.106;2023-02-20T11:07:36;101925.53;;;19.42;59.37
58690;BME280;44470;53.206;-6.106;2023-02-20T11:10:02;101947.78;;;19.47;59.14
58690;BME280;44470;53.206;-6.106;2023-02-20T11:12:35;101939.81;;;19.49;59.60
58690;BME280;44470;53.206;-6.106;2023-02-20T11:15:09;101942.47;;;19.49;59.16
58690;BME280;44470;53.206;-6.106;2023-02-20T11:17:37;101951.38;;;19.48;59.36
58690;BME280;44470;53.206;-6.106;2023-02-20T11:20:05;101967.38;;;19.49;59.17
58690;BME280;44470;53.206;-6.106;2023-02-20T11:22:48;101950.47;;;19.47;59.24
58690;BME280;44470;53.206;-6.106;2023-02-20T11:25:16;101947.81;;;19.50;59.54
58690;BME280;44470;53.206;-6.106;2023-02-20T11:27:42;101967.41;;;19.51;59.57
58690;BME280;44470;53.206;-6.106;2023-02-20T11:32:41;101970.94;;;19.46;59.29
58690;BME280;44470;53.206;-6.106;2023-02-20T11:35:30;101970.06;;;19.51;59.71
58690;BME280;44470;53.206;-6.106;2023-02-20T11:38:18;101972.75;;;19.51;59.14
58690;BME280;44470;53.206;-6.106;2023-02-20T11:43:42;101960.25;;;19.51;59.10
58690;BME280;44470;53.206;-6.106;2023-02-20T11:46:18;101969.19;;;19.52;59.51
58690;BME280;44470;53.206;-6.106;2023-02-20T11:49:08;101965.59;;;19.51;59.30
58690;BME280;44470;53.206;-6.106;2023-02-20T11:51:46;101952.25;;;19.51;59.18
58690;BME280;44470;53.206;-6.106;2023-02-20T11:54:18;101952.28;;;19.53;59.34
58690;BME280;44470;53.206;-6.106;2023-02-20T11:59:48;101951.34;;;19.52;59.62
58690;BME280;44470;53.206;-6.106;2023-02-20T12:02:20;101949.59;;;19.54;59.32
58690;BME280;44470;53.206;-6.106;2023-02-20T12:07:37;101943.38;;;19.54;59.25
58690;BME280;44470;53.206;-6.106;2023-02-20T12:10:23;101961.16;;;19.55;59.51
58690;BME280;44470;53.206;-6.106;2023-02-20T12:12:50;101945.16;;;19.55;59.30
58690;BME280;44470;53.206;-6.106;2023-02-20T12:15:19;101938.91;;;19.54;59.15
58690;BME280;44470;53.206;-6.106;2023-02-20T12:17:55;101915.75;;;19.56;59.25
58690;BME280;44470;53.206;-6.106;2023-02-20T12:20:25;101926.44;;;19.56;59.20
58690;BME280;44470;53.206;-6.106;2023-02-20T12:26:16;101922.00;;;19.57;59.23
58690;BME280;44470;53.206;-6.106;2023-02-20T12:29:06;101925.56;;;19.57;59.57
58690;BME280;44470;53.206;-6.106;2023-02-20T12:31:51;101920.22;;;19.59;59.41
58690;BME280;44470;53.206;-6.106;2023-02-20T12:34:49;101909.53;;;19.59;59.42
58690;BME280;44470;53.206;-6.106;2023-02-20T12:43:13;101895.28;;;19.61;59.23
58690;BME280;44470;53.206;-6.106;2023-02-20T12:46:27;101898.84;;;19.62;59.25
58690;BME280;44470;53.206;-6.106;2023-02-20T12:48:45;101884.59;;;19.61;59.13
58690;BME280;44470;53.206;-6.106;2023-02-20T13:01:40;101881.97;;;19.65;59.33
58690;BME280;44470;53.206;-6.106;2023-02-20T13:04:19;101870.38;;;19.66;59.44
58690;BME280;44470;53.206;-6.106;2023-02-20T13:09:31;101873.94;;;19.65;59.15
58690;BME280;44470;53.206;-6.106;2023-02-20T13:12:03;101869.50;;;19.67;59.44
58690;BME280;44470;53.206;-6.106;2023-02-20T13:17:34;101882.84;;;19.67;59.52
58690;BME280;44470;53.206;-6.106;2023-02-20T13:22:39;101879.28;;;19.68;59.34
58690;BME280;44470;53.206;-6.106;2023-02-20T13:25:49;101881.97;;;19.65;59.51
58690;BME280;44470;53.206;-6.106;2023-02-20T13:28:41;101885.50;;;19.70;59.39
58690;BME280;44470;53.206;-6.106;2023-02-20T13:36:37;101879.28;;;19.71;59.11
58690;BME280;44470;53.206;-6.106;2023-02-20T14:02:45;101865.00;;;19.77;59.51
58690;BME280;44470;53.206;-6.106;2023-02-20T14:05:28;101853.47;;;19.70;59.40
58690;BME280;44470;53.206;-6.106;2023-02-20T14:07:55;101852.56;;;19.71;59.43
58690;BME280;44470;53.206;-6.106;2023-02-20T14:10:42;101869.47;;;19.78;59.28
58690;BME280;44470;53.206;-6.106;2023-02-20T14:13:20;101863.25;;;19.77;59.49
58690;BME280;44470;53.206;-6.106;2023-02-20T14:15:58;101857.00;;;19.78;59.29
58690;BME280;44470;53.206;-6.106;2023-02-20T14:18:30;101875.69;;;19.80;59.52
58690;BME280;44470;53.206;-6.106;2023-02-20T14:21:04;101859.69;;;19.78;59.26
58690;BME280;44470;53.206;-6.106;2023-02-20T14:23:33;101853.44;;;19.78;59.49
58690;BME280;44470;53.206;-6.106;2023-02-20T14:26:04;101855.22;;;19.79;59.29
58690;BME280;44470;53.206;-6.106;2023-02-20T14:28:33;101864.13;;;19.81;59.07
58690;BME280;44470;53.206;-6.106;2023-02-20T14:33:36;101840.09;;;19.79;59.18
58690;BME280;44470;53.206;-6.106;2023-02-20T14:41:38;101836.53;;;19.80;59.53
58690;BME280;44470;53.206;-6.106;2023-02-20T14:44:14;101836.50;;;19.83;59.71
58690;BME280;44470;53.206;-6.106;2023-02-20T14:46:43;101820.47;;;19.79;59.42
58690;BME280;44470;53.206;-6.106;2023-02-20T14:49:22;101839.19;;;19.83;59.57
58690;BME280;44470;53.206;-6.106;2023-02-20T14:51:47;101842.75;;;19.81;59.66
58690;BME280;44470;53.206;-6.106;2023-02-20T14:56:39;101839.16;;;19.85;59.53
58690;BME280;44470;53.206;-6.106;2023-02-20T14:59:24;101840.94;;;19.86;59.54
58690;BME280;44470;53.206;-6.106;2023-02-20T15:01:51;101841.84;;;19.86;59.47